createdAt,value
2018-05-07T00:01:55.849Z,54.95
2018-05-07T00:04:24.132Z,53.17
2018-05-07T00:06:52.432Z,51.75
2018-05-07T00:09:20.697Z,51.30
2018-05-07T00:11:48.961Z,50.30
2018-05-07T00:14:18.002Z,49.05
2018-05-07T00:16:46.333Z,50.12
2018-05-07T00:19:14.534Z,50.50
2018-05-07T00:21:42.811Z,48.67
2018-05-07T00:24:11.090Z,45.67
2018-05-07T00:26:39.509Z,45.60
2018-05-07T00:29:07.723Z,48.72
2018-05-07T00:31:36.770Z,48.72
2018-05-07T00:34:05.034Z,49.60
2018-05-07T00:36:33.296Z,51.20
2018-05-07T00:39:01.560Z,48.35
2018-05-07T00:41:29.842Z,48.50
2018-05-07T00:43:58.104Z,46.37
2018-05-07T00:46:27.128Z,45.33
2018-05-07T00:48:55.392Z,46.10
2018-05-07T00:51:23.692Z,45.12
2018-05-07T00:53:51.949Z,43.67
2018-05-07T00:56:20.203Z,44.10
2018-05-07T00:58:49.241Z,42.72
2018-05-07T01:01:17.479Z,45.88
2018-05-07T01:03:46.514Z,41.67
2018-05-07T01:06:14.819Z,42.53
2018-05-07T01:08:43.066Z,42.70
2018-05-07T01:11:11.340Z,41.13
2018-05-07T01:13:39.644Z,42.28
2018-05-07T01:16:07.896Z,41.10
2018-05-07T01:18:36.157Z,42.97
2018-05-07T01:21:04.442Z,42.53
2018-05-07T01:23:32.735Z,45.40
2018-05-07T01:26:01.100Z,42.80
2018-05-07T01:28:30.113Z,41.42
2018-05-07T01:30:58.397Z,40.75
2018-05-07T01:33:26.644Z,41.75
2018-05-07T01:35:54.881Z,42.50
2018-05-07T01:38:23.945Z,44.38
2018-05-07T01:40:52.191Z,42.65
2018-05-07T01:43:20.447Z,44.28
2018-05-07T01:45:49.498Z,43.67
2018-05-07T01:48:17.777Z,43.85
2018-05-07T01:50:46.008Z,44.00
2018-05-07T01:53:14.289Z,42.67
2018-05-07T01:55:42.561Z,41.37
2018-05-07T01:58:10.812Z,42.35
2018-05-07T02:00:39.088Z,43.42
2018-05-07T02:03:07.330Z,43.15
2018-05-07T02:05:35.634Z,43.45
2018-05-07T02:08:03.899Z,42.97
2018-05-07T02:10:32.191Z,45.33
2018-05-07T02:13:00.467Z,43.60
2018-05-07T02:15:28.740Z,43.55
2018-05-07T02:17:57.005Z,42.55
2018-05-07T02:20:25.265Z,45.45
2018-05-07T02:22:53.498Z,42.58
2018-05-07T02:25:22.534Z,43.38
2018-05-07T02:27:50.813Z,43.40
2018-05-07T02:30:19.124Z,43.20
2018-05-07T02:32:47.385Z,43.78
2018-05-07T02:35:15.650Z,41.25
2018-05-07T02:37:43.940Z,40.25
2018-05-07T02:40:12.229Z,42.17
2018-05-07T02:42:40.457Z,41.83
2018-05-07T02:45:08.756Z,44.00
2018-05-07T02:47:36.994Z,45.08
2018-05-07T02:50:06.012Z,41.95
2018-05-07T02:52:34.273Z,43.72
2018-05-07T02:55:03.324Z,42.72
2018-05-07T02:57:31.575Z,40.78
2018-05-07T02:59:59.895Z,40.95
2018-05-07T03:02:28.165Z,39.20
2018-05-07T03:04:56.415Z,41.50
2018-05-07T03:07:24.648Z,38.85
2018-05-07T03:09:53.698Z,40.90
2018-05-07T03:12:21.971Z,39.67
2018-05-07T03:14:50.231Z,37.47
2018-05-07T03:17:18.496Z,35.88
2018-05-07T03:19:46.766Z,36.45
2018-05-07T03:22:15.035Z,36.67
2018-05-07T03:24:44.103Z,36.10
2018-05-07T03:27:12.313Z,35.08
2018-05-07T03:29:40.592Z,35.25
2018-05-07T03:32:09.604Z,35.05
2018-05-07T03:34:37.864Z,34.25
2018-05-07T03:37:06.132Z,35.50
2018-05-07T03:39:35.145Z,35.50
2018-05-07T03:42:03.452Z,34.25
2018-05-07T03:44:31.694Z,35.97
2018-05-07T03:46:59.975Z,37.08
2018-05-07T03:49:28.228Z,38.22
2018-05-07T03:51:56.514Z,37.67
2018-05-07T03:54:25.608Z,37.35
2018-05-07T03:56:53.838Z,37.05
2018-05-07T03:59:22.089Z,37.25
2018-05-07T04:01:50.375Z,36.90
2018-05-07T04:04:18.629Z,35.70
2018-05-07T04:06:47.781Z,36.22
2018-05-07T04:09:16.026Z,36.55
2018-05-07T04:11:44.292Z,36.53
2018-05-07T04:14:13.696Z,37.67
2018-05-07T04:16:53.889Z,36.50
2018-05-07T04:22:38.908Z,34.65
2018-05-07T04:25:07.961Z,36.10
2018-05-07T04:27:36.203Z,34.90
2018-05-07T04:30:05.222Z,35.00
2018-05-07T04:32:33.499Z,33.42
2018-05-07T04:35:01.752Z,32.25
2018-05-07T04:37:30.085Z,32.42
2018-05-07T04:39:58.354Z,31.80
2018-05-07T04:42:26.609Z,39.45
2018-05-07T04:44:55.781Z,45.28
2018-05-07T04:47:24.123Z,43.08
2018-05-07T04:49:52.383Z,42.78
2018-05-07T04:52:20.661Z,34.17
2018-05-07T04:54:48.926Z,29.23
2018-05-07T04:57:17.210Z,33.90
2018-05-07T04:59:45.461Z,32.90
2018-05-07T05:02:13.763Z,28.47
2018-05-07T05:04:41.999Z,9.20
2018-05-07T05:07:11.110Z,8.35
2018-05-07T05:09:39.256Z,6.07
2018-05-07T05:12:08.379Z,4.70
2018-05-07T05:14:36.617Z,3.40
2018-05-07T05:17:04.905Z,4.23
2018-05-07T05:19:33.198Z,4.80
2018-05-07T05:22:01.493Z,2.73
2018-05-07T05:24:29.762Z,4.37
2018-05-07T05:26:58.068Z,4.00
2018-05-07T05:29:26.333Z,4.20
2018-05-07T05:31:54.622Z,2.67
2018-05-07T05:34:22.879Z,3.60
2018-05-07T05:36:51.907Z,4.00
2018-05-07T05:39:20.153Z,3.10
2018-05-07T05:41:48.421Z,3.53
2018-05-07T05:44:17.477Z,2.57
2018-05-07T05:46:45.743Z,3.30
2018-05-07T05:49:14.005Z,2.60
2018-05-07T05:51:42.275Z,3.87
2018-05-07T05:54:10.535Z,2.63
2018-05-07T05:56:39.571Z,2.93
2018-05-07T05:59:07.804Z,3.93
2018-05-07T06:01:36.194Z,2.97
2018-05-07T06:04:04.462Z,2.73
2018-05-07T06:06:33.489Z,3.60
2018-05-07T06:09:01.747Z,2.80
2018-05-07T06:11:29.990Z,3.53
2018-05-07T06:13:58.249Z,3.33
2018-05-07T06:16:27.378Z,2.57
2018-05-07T06:18:56.453Z,2.83
2018-05-07T06:21:24.668Z,3.63
2018-05-07T06:23:52.978Z,2.43
2018-05-07T06:26:21.279Z,2.53
2018-05-07T06:28:49.549Z,3.77
2018-05-07T06:31:17.792Z,3.30
2018-05-07T06:33:46.086Z,4.07
2018-05-07T06:36:14.398Z,3.67
2018-05-07T06:38:42.688Z,4.70
2018-05-07T06:41:11.782Z,3.87
2018-05-07T06:43:40.783Z,4.23
2018-05-07T06:46:09.049Z,4.40
2018-05-07T06:48:38.084Z,5.37
2018-05-07T06:51:06.331Z,3.20
2018-05-07T06:53:35.352Z,3.97
2018-05-07T06:56:03.610Z,6.07
2018-05-07T06:58:31.893Z,5.30
2018-05-07T07:01:00.128Z,4.47
2018-05-07T07:03:29.920Z,3.70
2018-05-07T07:05:58.180Z,6.37
2018-05-07T07:08:26.669Z,3.50
2018-05-07T07:10:54.736Z,4.47
2018-05-07T07:13:23.041Z,4.80
2018-05-07T07:15:51.269Z,6.57
2018-05-07T07:18:20.311Z,6.90
2018-05-07T07:23:46.275Z,6.60
2018-05-07T07:26:14.661Z,5.50
2018-05-07T07:28:42.972Z,5.40
2018-05-07T07:34:55.280Z,7.33
2018-05-07T07:37:55.007Z,4.90
2018-05-07T07:40:59.851Z,6.00
2018-05-07T07:54:02.120Z,5.07
2018-05-07T07:56:30.351Z,4.60
2018-05-07T07:58:58.617Z,5.13
2018-05-07T08:01:26.894Z,4.40
2018-05-07T08:03:55.168Z,5.03
2018-05-07T08:06:23.404Z,3.50
2018-05-07T08:08:51.675Z,5.40
2018-05-07T08:11:19.911Z,3.67
2018-05-07T08:13:48.249Z,3.23
2018-05-07T08:16:16.500Z,3.20
2018-05-07T08:18:45.541Z,3.53
2018-05-07T08:21:13.762Z,4.13
2018-05-07T08:23:42.055Z,4.40
2018-05-07T08:26:10.289Z,4.80
2018-05-07T08:28:38.581Z,4.40
2018-05-07T08:31:06.842Z,3.80
2018-05-07T08:33:35.108Z,4.80
2018-05-07T08:36:03.340Z,4.80
2018-05-07T08:38:31.637Z,6.60
2018-05-07T08:40:59.888Z,3.90
2018-05-07T08:43:28.126Z,5.73
2018-05-07T08:45:56.387Z,4.37
2018-05-07T08:48:24.656Z,5.23
2018-05-07T08:50:53.000Z,6.13
2018-05-07T08:53:22.017Z,3.43
2018-05-07T08:55:50.265Z,5.17
2018-05-07T08:58:19.279Z,4.70
2018-05-07T09:00:48.295Z,5.37
2018-05-07T09:03:16.671Z,5.33
2018-05-07T09:05:44.944Z,3.77
2018-05-07T09:08:13.184Z,5.63
2018-05-07T09:10:42.228Z,3.93
2018-05-07T09:13:10.542Z,4.97
2018-05-07T09:15:39.816Z,3.97
2018-05-07T09:18:08.834Z,5.40
2018-05-07T09:20:37.091Z,3.87
2018-05-07T09:23:05.352Z,6.43
2018-05-07T09:25:33.592Z,6.77
2018-05-07T09:28:01.843Z,4.40
2018-05-07T09:30:30.892Z,4.87
2018-05-07T09:32:59.213Z,5.20
2018-05-07T09:35:27.492Z,6.17
2018-05-07T09:37:55.761Z,4.50
2018-05-07T09:40:24.086Z,6.70
2018-05-07T09:42:54.053Z,5.30
2018-05-07T09:45:22.327Z,4.87
2018-05-07T09:47:51.313Z,5.30
2018-05-07T09:50:19.598Z,4.63
2018-05-07T09:52:47.982Z,7.13
2018-05-07T09:55:16.230Z,4.97
2018-05-07T09:57:56.993Z,4.50
2018-05-07T10:00:40.147Z,7.33
2018-05-07T10:03:08.407Z,6.43
2018-05-07T10:05:36.749Z,6.40
2018-05-07T10:08:05.062Z,5.40
2018-05-07T10:10:33.310Z,5.83
2018-05-07T10:13:01.585Z,8.03
2018-05-07T10:15:30.605Z,7.07
2018-05-07T10:17:58.865Z,6.73
2018-05-07T10:20:27.210Z,7.33
2018-05-07T10:22:56.024Z,6.00
2018-05-07T10:25:25.063Z,5.37
2018-05-07T10:27:53.380Z,6.07
2018-05-07T10:30:21.610Z,4.83
2018-05-07T10:32:49.882Z,7.27
2018-05-07T10:35:18.205Z,4.17
2018-05-07T10:37:46.485Z,5.20
2018-05-07T10:40:14.722Z,3.57
2018-05-07T10:42:42.975Z,5.57
2018-05-07T10:45:11.981Z,3.43
2018-05-07T10:47:40.267Z,4.87
2018-05-07T10:50:08.524Z,4.10
2018-05-07T10:52:38.080Z,4.90
2018-05-07T10:55:06.386Z,5.30
2018-05-07T10:57:34.650Z,4.97
2018-05-07T11:00:02.932Z,4.23
2018-05-07T11:02:31.479Z,5.40
2018-05-07T11:05:00.620Z,6.07
2018-05-07T11:07:29.681Z,6.47
2018-05-07T11:09:57.856Z,5.97
2018-05-07T11:12:26.987Z,5.37
2018-05-07T11:14:55.205Z,6.13
2018-05-07T11:17:23.488Z,4.60
2018-05-07T11:19:51.837Z,5.80
2018-05-07T11:22:20.076Z,6.60
2018-05-07T11:24:48.332Z,68.93
2018-05-07T11:29:44.642Z,9.23
2018-05-07T11:32:13.696Z,7.60
2018-05-07T11:34:43.050Z,6.20
2018-05-07T11:37:11.337Z,6.60
2018-05-07T11:39:39.568Z,6.57
2018-05-07T11:42:07.833Z,6.83
2018-05-07T11:44:36.083Z,5.27
2018-05-07T11:47:04.362Z,7.60
2018-05-07T11:49:32.621Z,5.63
2018-05-07T11:52:00.923Z,5.43
2018-05-07T11:54:29.185Z,6.87
2018-05-07T11:56:57.454Z,6.57
2018-05-07T11:59:26.475Z,9.90
2018-05-07T12:01:54.742Z,6.10
2018-05-07T12:04:23.006Z,7.23
2018-05-07T12:06:51.377Z,7.83
2018-05-07T12:09:20.413Z,7.30
2018-05-07T12:11:48.696Z,6.93
2018-05-07T12:14:17.045Z,7.00
2018-05-07T12:16:45.380Z,7.50
2018-05-07T12:19:13.710Z,6.40
2018-05-07T12:21:41.943Z,5.87
2018-05-07T12:24:10.988Z,5.70
2018-05-07T12:26:39.267Z,6.67
2018-05-07T12:29:07.672Z,5.03
2018-05-07T12:31:36.011Z,5.40
2018-05-07T12:34:04.223Z,5.73
2018-05-07T12:36:32.624Z,6.93
2018-05-07T12:39:00.859Z,6.83
2018-05-07T12:41:29.161Z,6.17
2018-05-07T12:43:57.411Z,4.23
2018-05-07T12:46:26.432Z,7.37
2018-05-07T12:48:54.683Z,6.57
2018-05-07T12:51:22.910Z,8.03
2018-05-07T12:53:51.582Z,7.00
2018-05-07T12:56:19.976Z,6.73
2018-05-07T12:58:48.993Z,6.13
2018-05-07T13:01:17.260Z,5.77
2018-05-07T13:03:46.303Z,7.20
2018-05-07T13:08:43.063Z,35.22
2018-05-07T13:13:39.805Z,41.88
2018-05-07T13:16:08.103Z,6.10
2018-05-07T13:18:36.673Z,10.00
2018-05-07T13:21:04.921Z,5.73
2018-05-07T13:23:33.218Z,6.37
2018-05-07T13:26:01.548Z,10.07
2018-05-07T13:28:29.824Z,5.60
2018-05-07T13:30:58.166Z,7.60
2018-05-07T13:33:26.452Z,5.13
2018-05-07T13:35:54.782Z,6.27
2018-05-07T13:38:23.078Z,4.17
2018-05-07T13:40:53.984Z,4.20
2018-05-07T13:43:24.099Z,5.40
2018-05-07T13:45:52.415Z,10.03
2018-05-07T13:48:21.456Z,11.60
2018-05-07T13:50:49.730Z,5.30
2018-05-07T13:53:17.983Z,5.47
2018-05-07T13:55:46.450Z,4.97
2018-05-07T13:58:14.757Z,6.07
2018-05-07T14:00:43.034Z,5.10
2018-05-07T14:03:12.120Z,5.83
2018-05-07T14:05:40.337Z,5.23
2018-05-07T14:08:08.621Z,5.57
2018-05-07T14:10:36.909Z,5.97
2018-05-07T14:13:05.538Z,5.00
2018-05-07T14:15:33.802Z,7.03
2018-05-07T14:18:02.069Z,5.03
2018-05-07T14:20:30.359Z,6.10
2018-05-07T14:22:58.737Z,6.40
2018-05-07T14:25:27.372Z,5.40
2018-05-07T14:27:55.650Z,7.70
2018-05-07T14:30:23.896Z,6.73
2018-05-07T14:32:52.347Z,4.50
2018-05-07T14:35:20.593Z,7.10
2018-05-07T14:37:49.627Z,6.73
2018-05-07T14:40:18.572Z,5.23
2018-05-07T14:42:46.917Z,7.60
2018-05-07T14:45:15.452Z,4.90
2018-05-07T14:47:43.690Z,7.00
2018-05-07T14:50:12.057Z,7.47
2018-05-07T14:52:40.278Z,4.80
2018-05-07T14:55:08.574Z,5.03
2018-05-07T14:57:37.603Z,7.07
2018-05-07T15:00:05.912Z,7.00
2018-05-07T15:02:34.167Z,4.37
2018-05-07T15:05:03.097Z,5.87
2018-05-07T15:07:31.349Z,6.20
2018-05-07T15:09:59.615Z,4.80
2018-05-07T15:12:27.973Z,5.00
2018-05-07T15:14:56.315Z,5.83
2018-05-07T15:17:24.553Z,7.33
2018-05-07T15:19:52.870Z,4.80
2018-05-07T15:22:21.505Z,6.63
2018-05-07T15:24:50.769Z,4.63
2018-05-07T15:27:19.021Z,6.70
2018-05-07T15:29:47.619Z,5.70
2018-05-07T15:32:15.854Z,7.13
2018-05-07T15:34:44.117Z,7.53
2018-05-07T15:37:12.357Z,3.97
2018-05-07T15:39:41.129Z,5.03
2018-05-07T15:42:09.360Z,6.93
2018-05-07T15:44:37.621Z,6.50
2018-05-07T15:47:05.877Z,7.30
2018-05-07T15:49:34.919Z,5.83
2018-05-07T15:52:03.148Z,6.77
2018-05-07T15:54:32.265Z,6.40
2018-05-07T15:57:01.672Z,5.40
2018-05-07T15:59:29.914Z,4.00
2018-05-07T16:01:58.172Z,5.20
2018-05-07T16:04:26.532Z,4.87
2018-05-07T16:06:54.956Z,6.27
2018-05-07T16:09:23.416Z,5.20
2018-05-07T16:11:51.739Z,3.40
2018-05-07T16:14:19.968Z,5.00
2018-05-07T16:16:48.367Z,4.73
2018-05-07T16:19:16.676Z,4.97
2018-05-07T16:21:45.751Z,6.20
2018-05-07T16:24:14.047Z,4.93
2018-05-07T16:26:42.332Z,6.00
2018-05-07T16:29:11.389Z,3.77
2018-05-07T16:31:39.682Z,5.20
2018-05-07T16:34:07.993Z,3.97
2018-05-07T16:36:36.326Z,5.37
2018-05-07T16:39:05.336Z,4.97
2018-05-07T16:41:34.462Z,3.57
2018-05-07T16:44:03.477Z,4.80
2018-05-07T16:46:31.772Z,4.73
2018-05-07T16:49:00.188Z,19.93
2018-05-07T16:51:28.331Z,8.37
2018-05-07T16:53:56.605Z,15.40
2018-05-07T16:56:24.869Z,6.40
2018-05-07T16:58:53.191Z,5.43
2018-05-07T17:01:22.298Z,4.90
2018-05-07T17:03:50.626Z,3.93
2018-05-07T17:06:18.939Z,6.10
2018-05-07T17:08:47.197Z,5.80
2018-05-07T17:11:15.508Z,6.63
2018-05-07T17:13:43.811Z,3.40
2018-05-07T17:16:12.091Z,3.53
2018-05-07T17:18:41.140Z,3.10
2018-05-07T17:21:09.432Z,4.63
2018-05-07T17:23:37.695Z,4.87
2018-05-07T17:26:05.956Z,5.90
2018-05-07T17:28:34.247Z,5.23
2018-05-07T17:31:02.639Z,4.50
2018-05-07T17:33:30.903Z,4.43
2018-05-07T17:35:59.756Z,4.43
2018-05-07T17:38:29.168Z,4.43
2018-05-07T17:40:57.447Z,2.90
2018-05-07T17:43:25.690Z,3.37
2018-05-07T17:46:06.618Z,5.78
2018-05-07T17:48:46.663Z,9.65
2018-05-07T17:51:14.980Z,8.63
2018-05-07T17:53:43.287Z,3.85
2018-05-07T17:56:12.753Z,10.48
2018-05-07T17:58:41.273Z,6.30
2018-05-07T18:01:09.606Z,3.50
2018-05-07T18:03:37.869Z,5.30
2018-05-07T18:06:06.133Z,5.30
2018-05-07T18:08:34.420Z,3.23
2018-05-07T18:11:02.703Z,3.30
2018-05-07T18:13:31.175Z,5.37
2018-05-07T18:15:59.512Z,4.73
2018-05-07T18:18:28.539Z,4.07
2018-05-07T18:20:56.816Z,3.43
2018-05-07T18:23:26.040Z,5.70
2018-05-07T18:25:56.050Z,5.03
2018-05-07T18:28:25.975Z,3.67
2018-05-07T18:30:55.528Z,5.23
2018-05-07T18:33:24.608Z,4.50
2018-05-07T18:35:52.885Z,5.13
2018-05-07T18:38:21.980Z,4.73
2018-05-07T18:40:50.261Z,4.40
2018-05-07T18:43:19.295Z,2.77
2018-05-07T18:45:47.594Z,3.80
2018-05-07T18:48:15.894Z,4.43
2018-05-07T18:50:44.697Z,4.30
2018-05-07T18:53:12.959Z,6.00
2018-05-07T18:55:41.673Z,4.80
2018-05-07T18:58:10.736Z,5.13
2018-05-07T19:00:38.976Z,4.00
2018-05-07T19:03:07.306Z,4.53
2018-05-07T19:05:35.555Z,4.80
2018-05-07T19:08:03.844Z,3.83
2018-05-07T19:10:32.120Z,5.43
2018-05-07T19:13:00.517Z,5.67
2018-05-07T19:15:28.828Z,3.93
2018-05-07T19:17:58.813Z,4.87
2018-05-07T19:20:28.131Z,4.30
2018-05-07T19:22:57.193Z,2.90
2018-05-07T19:25:26.061Z,5.03
2018-05-07T19:27:54.467Z,4.60
2018-05-07T19:30:22.771Z,6.47
2018-05-07T19:32:51.872Z,4.53
2018-05-07T19:35:20.237Z,3.90
2018-05-07T19:37:48.514Z,4.13
2018-05-07T19:40:16.791Z,2.73
2018-05-07T19:42:45.212Z,3.87
2018-05-07T19:45:15.164Z,4.00
2018-05-07T19:47:43.505Z,2.90
2018-05-07T19:50:11.812Z,4.50
2018-05-07T19:52:40.141Z,2.83
2018-05-07T19:55:08.631Z,4.30
2018-05-07T19:57:37.723Z,3.10
2018-05-07T20:00:05.989Z,4.10
2018-05-07T20:02:35.071Z,4.20
2018-05-07T20:05:03.387Z,4.40
2018-05-07T20:07:32.444Z,2.83
2018-05-07T20:10:00.768Z,3.83
2018-05-07T20:12:29.833Z,2.53
2018-05-07T20:14:58.071Z,3.80
2018-05-07T20:17:26.411Z,3.80
2018-05-07T20:19:54.679Z,2.70
2018-05-07T20:22:24.092Z,2.83
2018-05-07T20:24:52.368Z,3.00
2018-05-07T20:27:20.593Z,4.07
2018-05-07T20:29:48.920Z,3.83
2018-05-07T20:32:17.979Z,2.70
2018-05-07T20:34:46.241Z,2.80
2018-05-07T20:37:15.333Z,3.70
2018-05-07T20:39:43.619Z,2.47
2018-05-07T20:42:11.853Z,2.53
2018-05-07T20:44:40.907Z,2.43
2018-05-07T20:47:09.261Z,2.87
2018-05-07T20:49:37.486Z,3.90
2018-05-07T20:52:05.736Z,3.70
2018-05-07T20:54:34.042Z,3.60
2018-05-07T20:57:02.358Z,2.43
2018-05-07T20:59:30.693Z,3.23
2018-05-07T21:01:59.062Z,3.93
2018-05-07T21:04:28.642Z,4.23
2018-05-07T21:06:59.778Z,3.00
2018-05-07T21:09:28.100Z,3.90
2018-05-07T21:11:56.786Z,3.73
2018-05-07T21:14:25.054Z,4.40
2018-05-07T21:16:53.344Z,2.70
2018-05-07T21:19:22.857Z,3.97
2018-05-07T21:21:51.113Z,2.47
2018-05-07T21:24:19.361Z,3.80
2018-05-07T21:26:47.901Z,2.80
2018-05-07T21:29:16.999Z,4.07
2018-05-07T21:31:46.044Z,4.00
2018-05-07T21:34:14.372Z,4.30
2018-05-07T21:36:42.690Z,4.13
2018-05-07T21:39:12.289Z,4.13
2018-05-07T21:41:40.552Z,4.00
2018-05-07T21:44:08.862Z,3.93
2018-05-07T21:46:37.106Z,3.03
2018-05-07T21:49:06.155Z,2.90
2018-05-07T21:51:34.435Z,4.70
2018-05-07T21:54:02.697Z,3.72
2018-05-07T21:56:30.957Z,4.03
2018-05-07T21:58:59.235Z,4.07
2018-05-07T22:01:28.457Z,4.50
2018-05-07T22:03:56.730Z,4.40
2018-05-07T22:06:25.308Z,3.40
2018-05-07T22:08:53.624Z,3.87
2018-05-07T22:11:21.885Z,3.30
2018-05-07T22:13:50.209Z,4.40
2018-05-07T22:16:19.224Z,2.83
2018-05-07T22:18:47.982Z,4.00
2018-05-07T22:21:17.822Z,3.58
2018-05-07T22:23:46.961Z,3.95
2018-05-07T22:33:39.419Z,6.53
2018-05-07T22:36:07.712Z,2.97
2018-05-07T22:38:36.055Z,3.53
2018-05-07T22:41:05.073Z,4.57
2018-05-07T22:43:33.325Z,4.82
2018-05-07T22:46:02.342Z,3.85
2018-05-07T22:53:26.803Z,6.00
2018-05-07T22:55:55.087Z,7.40
2018-05-07T22:58:23.320Z,3.47
2018-05-07T23:00:51.627Z,3.65
2018-05-07T23:03:19.872Z,18.15
2018-05-07T23:10:43.585Z,6.93
2018-05-07T23:13:11.849Z,3.25
2018-05-07T23:18:08.553Z,5.10
2018-05-07T23:20:36.828Z,4.47
2018-05-07T23:23:05.145Z,6.85
2018-05-07T23:28:01.806Z,6.65
2018-05-07T23:50:14.977Z,4.60
2018-05-07T23:52:43.227Z,3.97
2018-05-07T23:55:11.489Z,3.33
